Tiempo atmosférico en la estación meteorológica de Arroyo Del Ojanco, Jaén (580 m.)



Fecha
DESCASC
Temp. máxima en grados centígrados (hora)
DESCASC
Temp. mínima en grados centígrados (hora)
DESCASC
Temp. media en grados centígrados
DESCASC
Racha de viento máxima en m/sg (hora)
DESCASC
Velocidad máxima media en intervalos de 10 minutos(hora)
DESCASC
Precipitaciones diarias en mm
DESCASC
Precipitaciones de 00:00 a 06:00 en mm
DESCASC
Precipitaciones de 06:00 a 12:00 en mm
DESCASC
Precipitaciones de 12:00 a 18:00 en mm
DESCASC
Precipitaciones de 18:00 a 24:00 en mm
DESCASC
19-01-2020 10.5 (02:00) 3.5 (19:00) 7 -- (--) -- (--) 3.8 2.5 0.3 0.4 0.6
18-01-2020 11.2 (15:20) 6.3 (06:30) 8.8 -- (--) -- (--) 3.6 0 1.8 0.1 1.7
17-01-2020 15 (16:20) 2.6 (03:10) 8.8 -- (--) -- (--) 0 0 0 0 0
16-01-2020 17.1 (15:50) 1.4 (00:00) 9.3 -- (--) -- (--) 0 0 0 0 0
15-01-2020 16.1 (16:20) 0 (00:00) 8.1 -- (--) -- (--) 0 0 0 0 0
14-01-2020 12.5 (14:30) -1.1 (-00:0) 5.7 -- (--) -- (--) 0 0 0 0 0
13-01-2020 13.7 (15:30) -1.2 (-00:0) 6.2 -- (--) -- (--) 0 0 0 0 0
12-01-2020 14.9 (17:40) 0 (00:00) 7.4 -- (--) -- (--) 0 0 0 0 0
11-01-2020 15.6 (15:00) 0.9 (00:00) 8.3 -- (--) -- (--) 0 0 0 0 0
10-01-2020 13.3 (16:00) 3.8 (00:00) 8.6 -- (--) -- (--) 0 0 0 0 0
09-01-2020 14.7 (15:40) 2.2 (00:00) 8.4 -- (--) -- (--) 0 0 0 0 0
08-01-2020 19.3 (16:20) 1.3 (00:00) 10.3 -- (--) -- (--) 0 0 0 0 0
07-01-2020 19.8 (16:20) 1 (00:00) 10.4 -- (--) -- (--) 0 0 0 0 0
06-01-2020 17.3 (16:10) 1 (00:00) 9.1 -- (--) -- (--) 0 0 0 0 0
05-01-2020 15.5 (16:30) 0.3 (00:00) 7.9 -- (--) -- (--) 0 0 0 0 0
04-01-2020 13.4 (16:40) 4.4 (00:00) 8.9 -- (--) -- (--) 0 0 0 0 0
03-01-2020 15.8 (16:40) 1.4 (00:00) 8.6 -- (--) -- (--) 0 0 0 0 0
02-01-2020 17.9 (15:00) 1.4 (00:00) 9.6 -- (--) -- (--) 0 0 0 0 0
01-01-2020 19.5 (16:00) 2.6 (00:00) 11 -- (--) -- (--) 0 0 0 0 0
31-12-2019 16.9 (17:10) 1.7 (00:00) 9.3 -- (--) -- (--) 0 0 0 0 0
30-12-2019 16.8 (16:40) 1.4 (00:00) 9.1 -- (--) -- (--) 0 0 0 0 0
29-12-2019 18.7 (16:10) 1.9 (00:00) 10.3 -- (--) -- (--) 0 0 0 0 0
28-12-2019 21.3 (16:30) 5.3 (00:00) 13.3 -- (--) -- (--) 0 0 0 0 0
27-12-2019 20.2 (15:20) 5.9 (00:00) 13.1 -- (--) -- (--) 0 0 0 0 0
26-12-2019 19.2 (16:30) 6 (00:00) 12.6 -- (--) -- (--) 0 0 0 0 0
25-12-2019 22 (16:20) 4.1 (00:00) 13 -- (--) -- (--) 0 0 0 0 0
24-12-2019 22 (16:30) 5.5 (00:00) 13.8 -- (--) -- (--) 0 0 0 0 0
23-12-2019 18.9 (16:20) 8 (00:00) 13.4 -- (--) -- (--) 0 0 0 0 0

Gráficas

Temp. máximas Temp. mínimas Temp. medias Precipitaciones Rachas de viento máximas Velocidades máximas media en intervalos de 10 minutos

Datos horarios

Fecha y hora oficial Temperatura (ºC) Velocidad del viento (km/h) Dirección del viento Racha (km/h) Dirección de racha Precipitación (mm) Presión (hPa) Tendencia (hPa) Humedad (%)
2020-01-21 23:00:00 5.5 -- -- -- -- 0 937.5 1.1 86
2020-01-21 22:00:00 5.7 -- -- -- -- 0 937 1 86
2020-01-21 21:00:00 4.9 -- -- -- -- 0 937.1 1.2 88
2020-01-21 20:00:00 4.9 -- -- -- -- 0 936.4 1 86
2020-01-21 19:00:00 6 -- -- -- -- 0 936 1.4 81
2020-01-21 18:00:00 7.3 -- -- -- -- 0 935.9 1.2 74
2020-01-21 17:00:00 9 -- -- -- -- 0 935.4 0.5 70
2020-01-21 16:00:00 8.4 -- -- -- -- 0 934.6 -1.3 71
2020-01-21 15:00:00 8.3 -- -- -- -- 0 934.7 -1.8 75
2020-01-21 14:00:00 7.3 -- -- -- -- 0.1 934.9 -1.2 81
2020-01-21 13:00:00 6 -- -- -- -- 0 935.9 -0.1 85
2020-01-21 12:00:00 6 -- -- -- -- 0 936.5 1.7 81
2020-01-21 11:00:00 6.2 -- -- -- -- 0 936.1 -0.2 79
2020-01-21 10:00:00 5.3 -- -- -- -- 0 936 -0.3 81
2020-01-21 09:00:00 4.1 -- -- -- -- 0 934.8 -1.8 85
2020-01-21 08:00:00 4.2 -- -- -- -- 0 936.3 -0.7 86
2020-01-21 07:00:00 4.2 -- -- -- -- 0.1 936.3 -1.2 88
2020-01-21 06:00:00 4.8 -- -- -- -- 0.1 936.6 -1.7 88
2020-01-21 05:00:00 4.7 -- -- -- -- 0.5 937 -1.7 89
2020-01-21 04:00:00 5.1 -- -- -- -- 0 937.5 -1.7 82
2020-01-21 03:00:00 4.9 -- -- -- -- 0 938.3 -1.2 82
2020-01-21 02:00:00 4.5 -- -- -- -- 0 938.7 0 80
2020-01-21 01:00:00 6 -- -- -- -- 0 939.2 0.6 75
2020-01-21 00:00:00 5.7 -- -- -- -- 0 939.5 0.8 77
2020-01-20 23:00:00 5.9 -- -- -- -- 0 938.7 0.1 76
2020-01-20 22:00:00 7.2 -- -- -- -- 0 938.6 0.3 68
2020-01-20 21:00:00 6.5 -- -- -- -- 0 938.7 0.8 73
2020-01-20 20:00:00 7.2 -- -- -- -- 0 938.6 0.7 70
2020-01-20 19:00:00 6.4 -- -- -- -- 0 938.3 0.5 77
2020-01-20 18:00:00 6.1 -- -- -- -- 0 937.9 -0.3 77
2020-01-20 17:00:00 6.6 -- -- -- -- 0 937.9 -0.6 70
2020-01-20 16:00:00 7.6 -- -- -- -- 0 937.8 -1.4 61
2020-01-20 15:00:00 8.2 -- -- -- -- 0 938.2 -1.1 60
2020-01-20 14:00:00 7 -- -- -- -- 0 938.5 -0.2 63
2020-01-20 13:00:00 7.2 -- -- -- -- 0 939.2 0.9 62
2020-01-20 12:00:00 6.9 -- -- -- -- 0 939.3 1 62
2020-01-20 11:00:00 4.4 -- -- -- -- 0 938.7 0 76
2020-01-20 10:00:00 3 -- -- -- -- 0 938.3 -0.7 81
2020-01-20 09:00:00 2.3 -- -- -- -- 0 938.3 -0.9 82
2020-01-20 08:00:00 2.8 -- -- -- -- 0 938.7 -0.6 76
2020-01-20 07:00:00 2.3 -- -- -- -- 0 939 -1.4 81
2020-01-20 06:00:00 2.5 -- -- -- -- 0 939.2 -1.4 77
2020-01-20 05:00:00 2.5 -- -- -- -- 0 939.3 -1.5 79
2020-01-20 04:00:00 3.3 -- -- -- -- 0 940.4 -1 69
2020-01-20 03:00:00 4.1 -- -- -- -- 0 940.6 -0.9 67
2020-01-20 02:00:00 3.8 -- -- -- -- 0 940.8 -0.7 72
2020-01-20 01:00:00 4 -- -- -- -- 0 941.4 0.2 73
2020-01-20 00:00:00 4 -- -- -- -- 0 941.5 0.7 83
2020-01-19 23:00:00 4.1 -- -- -- -- 0 941.5 0.9 87
2020-01-19 22:00:00 4.2 -- -- -- -- 0 941.2 0.3 88
2020-01-19 21:00:00 3.8 -- -- -- -- 0 940.8 0.3 89
2020-01-19 20:00:00 4 -- -- -- -- 0.1 940.6 0.4 89
2020-01-19 19:00:00 3.6 -- -- -- -- 0.5 940.9 0.9 92
2020-01-19 18:00:00 4.7 -- -- -- -- 0.2 940.5 0.3 88
2020-01-19 17:00:00 5.9 -- -- -- -- 0.1 940.2 0 82
2020-01-19 16:00:00 7 -- -- -- -- 0.1 940 -0.8 85
2020-01-19 15:00:00 8.3 -- -- -- -- 0 940.2 -1.4 72
2020-01-19 14:00:00 7.8 -- -- -- -- 0 940.2 -1.7 76
2020-01-19 13:00:00 7.4 -- -- -- -- 0 940.8 -0.5 81
2020-01-19 12:00:00 6.9 -- -- -- -- 0.2 941.6 0.5 87
2020-01-19 11:00:00 7.1 -- -- -- -- 0 941.9 1 83
2020-01-19 10:00:00 6.5 -- -- -- -- 0 941.3 0 93
2020-01-19 09:00:00 6.1 -- -- -- -- 0 941.1 -0.6 93
2020-01-19 08:00:00 5.7 -- -- -- -- 0 940.9 -1.4 94
2020-01-19 07:00:00 5.8 -- -- -- -- 0.1 941.3 -1.9 92
2020-01-19 06:00:00 6.3 -- -- -- -- 0.1 941.7 -2.6 88
2020-01-19 05:00:00 6.1 -- -- -- -- 1.1 942.3 -1.9 89
2020-01-19 04:00:00 9.1 -- -- -- -- 0 943.2 -2.1 93
2020-01-19 03:00:00 9.4 -- -- -- -- 0 944.3 -2.5 94
2020-01-19 02:00:00 10.2 -- -- -- -- 0.7 944.2 -2.3 92
2020-01-19 01:00:00 10.1 -- -- -- -- 0.6 945.3 -1.3 94
2020-01-19 00:00:00 10.3 -- -- -- -- 0.6 946.8 -0.5 97
2020-01-18 23:00:00 10.3 -- -- -- -- 0.1 946.5 -1.5 98
2020-01-18 22:00:00 10 -- -- -- -- 0.3 946.6 -2.2 98
2020-01-18 21:00:00 9 -- -- -- -- 0.3 947.3 -2.1 98
2020-01-18 20:00:00 8.9 -- -- -- -- 0.2 948 -2.2 98
2020-01-18 19:00:00 8.9 -- -- -- -- 0.2 948.8 -2.3 97
2020-01-18 18:00:00 9.2 -- -- -- -- 0 949.4 -2.1 94
2020-01-18 17:00:00 10 -- -- -- -- 0 950.2 -2 86
2020-01-18 16:00:00 11 -- -- -- -- 0 951.1 -2.4 75
2020-01-18 15:00:00 11.1 -- -- -- -- 0 951.5 -2.8 80
2020-01-18 14:00:00 10.3 -- -- -- -- 0.1 952.2 -2.4 89
2020-01-18 13:00:00 9.2 -- -- -- -- 0 953.5 -1 94
2020-01-18 12:00:00 8.2 -- -- -- -- 0 954.3 0 96
2020-01-18 11:00:00 7.5 -- -- -- -- 0.9 954.6 1 97
2020-01-18 10:00:00 7.8 -- -- -- -- 0.9 954.5 0.8 95
2020-01-18 09:00:00 6.9 -- -- -- -- 0 954.3 1.6 95
2020-01-18 08:00:00 7.3 -- -- -- -- 0 953.6 0.1 93
2020-01-18 07:00:00 7.1 -- -- -- -- 0 953.7 0.6 95
2020-01-18 06:00:00 6.6 -- -- -- -- 0 952.7 -0.1 94
2020-01-18 05:00:00 8.4 -- -- -- -- 0 953.5 -0.5 88
2020-01-18 04:00:00 6.6 -- -- -- -- 0 953.1 -2.3 94
2020-01-18 03:00:00 7.2 -- -- -- -- 0 952.8 -2.9 94
2020-01-18 02:00:00 7.6 -- -- -- -- 0 954 -1.7 92
2020-01-18 01:00:00 8 -- -- -- -- 0 955.4 -0.5 91
2020-01-18 00:00:00 8.6 -- -- -- -- 0 955.7 0.2 88
2020-01-17 23:00:00 8.9 -- -- -- -- 0 955.7 -0.4 87
2020-01-17 22:00:00 8.4 -- -- -- -- 0 955.9 0.1 85
2020-01-17 21:00:00 9.6 -- -- -- -- 0 955.5 0.2 81
2020-01-17 20:00:00 10.3 -- -- -- -- 0 956.1 0.9 75
2020-01-17 19:00:00 11.1 -- -- -- -- 0 955.8 0.3 70
2020-01-17 18:00:00 12.5 -- -- -- -- 0 955.3 -0.3 67
2020-01-17 17:00:00 14.5 -- -- -- -- 0 955.2 -0.7 61
2020-01-17 16:00:00 14.4 -- -- -- -- 0 955.5 -1 61
2020-01-17 15:00:00 14.2 -- -- -- -- 0 955.6 -1 63
2020-01-17 14:00:00 13.4 -- -- -- -- 0 955.9 0 68
2020-01-17 13:00:00 13.5 -- -- -- -- 0 956.5 2 67
2020-01-17 12:00:00 11 -- -- -- -- 0 956.6 2.9 71
2020-01-17 11:00:00 8.3 -- -- -- -- 0 955.9 2.8 82
2020-01-17 10:00:00 6.4 -- -- -- -- 0 954.5 1.9 86
2020-01-17 09:00:00 5.6 -- -- -- -- 0 953.7 1.6 88
2020-01-17 08:00:00 4.1 -- -- -- -- 0 953.1 1 92
2020-01-17 07:00:00 4.5 -- -- -- -- 0 952.6 0.6 89
2020-01-17 06:00:00 4.3 -- -- -- -- 0 952.1 -0.2 91
2020-01-17 05:00:00 3.9 -- -- -- -- 0 952.1 0 89
2020-01-17 04:00:00 3.6 -- -- -- -- 0 952 -0.3 86
2020-01-17 03:00:00 3 -- -- -- -- 0 952.3 -0.2 85
2020-01-17 02:00:00 4.8 -- -- -- -- 0 952.1 0.1 80
2020-01-17 01:00:00 5.1 -- -- -- -- 0 952.3 -0.5 75
2020-01-17 00:00:00 5.5 -- -- -- -- 0 952.5 -0.2 73
2020-01-16 23:00:00 7.5 -- -- -- -- 0 952 -0.6 66
2020-01-16 22:00:00 7.3 -- -- -- -- 0 952.8 0.7 60
2020-01-16 21:00:00 9.3 -- -- -- -- 0 952.7 0.8 52
2020-01-16 20:00:00 12.1 -- -- -- -- 0 952.6 0.5 44
2020-01-16 19:00:00 12.3 -- -- -- -- 0 952.1 0.1 43
2020-01-16 18:00:00 14.3 -- -- -- -- 0 951.9 -0.2 39
2020-01-16 17:00:00 16.6 -- -- -- -- 0 952.1 -0.3 37
2020-01-16 16:00:00 16.7 -- -- -- -- 0 952 -0.7 37
2020-01-16 15:00:00 16.3 -- -- -- -- 0 952.1 -0.7 39
2020-01-16 14:00:00 15.5 -- -- -- -- 0 952.4 0.5 42
2020-01-16 13:00:00 13.2 -- -- -- -- 0 952.7 1.9 50
2020-01-16 12:00:00 10.2 -- -- -- -- 0 952.8 2.5 60
2020-01-16 11:00:00 8.3 -- -- -- -- 0 951.9 1.6 66
2020-01-16 10:00:00 4.1 -- -- -- -- 0 950.8 0.8 83
2020-01-16 09:00:00 1.5 -- -- -- -- 0 950.3 0.2 89
2020-01-16 08:00:00 2.1 -- -- -- -- 0 950.3 0.1 89
2020-01-16 07:00:00 1.9 -- -- -- -- 0 950 -0.7 88
2020-01-16 06:00:00 2.4 -- -- -- -- 0 950.1 -0.8 87
2020-01-16 05:00:00 2.8 -- -- -- -- 0 950.2 -0.4 85
2020-01-16 04:00:00 3 -- -- -- -- 0 950.7 -0.2 82
2020-01-16 03:00:00 3.6 -- -- -- -- 0 950.9 -0.4 80
2020-01-16 02:00:00 4.1 -- -- -- -- 0 950.6 -0.8 79
2020-01-16 01:00:00 4.5 -- -- -- -- 0 950.9 -1 75
2020-01-16 00:00:00 4.7 -- -- -- -- 0 951.3 -0.7 73
2020-01-15 23:00:00 6 -- -- -- -- 0 951.4 -0.9 67
2020-01-15 22:00:00 7.1 -- -- -- -- 0 951.9 -0.2 61
2020-01-15 21:00:00 9.3 -- -- -- -- 0 952 0.3 54
2020-01-15 20:00:00 11.3 -- -- -- -- 0 952.3 1 46
2020-01-15 19:00:00 12 -- -- -- -- 0 952.1 1 44
2020-01-15 18:00:00 13.2 -- -- -- -- 0 951.7 0.9 42
2020-01-15 17:00:00 15.2 -- -- -- -- 0 951.3 0.5 39
2020-01-15 16:00:00 15.7 -- -- -- -- 0 951.1 0.3 41
2020-01-15 15:00:00 14 -- -- -- -- 0 950.8 0.7 48
2020-01-15 14:00:00 13.7 -- -- -- -- 0 950.8 1.9 54
2020-01-15 13:00:00 11.8 -- -- -- -- 0 950.8 2.7 60
2020-01-15 12:00:00 7.9 -- -- -- -- 0 950.1 2.6 75
2020-01-15 11:00:00 4.7 -- -- -- -- 0 948.9 1.8 92
2020-01-15 10:00:00 1.9 -- -- -- -- 0 948.1 1.4 98
2020-01-15 09:00:00 0.6 -- -- -- -- 0 947.5 0.9 98
2020-01-15 08:00:00 1.1 -- -- -- -- 0 947.1 0.6 99
2020-01-15 07:00:00 0.5 -- -- -- -- 0 946.7 -0.2 98
2020-01-15 06:00:00 1.2 -- -- -- -- 0 946.6 -0.2 98
2020-01-15 05:00:00 1.3 -- -- -- -- 0 946.5 -0.5 98
2020-01-15 04:00:00 0.8 -- -- -- -- 0 946.9 -0.1 96
2020-01-15 03:00:00 1.7 -- -- -- -- 0 946.8 -0.2 95
2020-01-15 02:00:00 2.1 -- -- -- -- 0 947 -0.5 94
2020-01-15 01:00:00 2.9 -- -- -- -- 0 947 -0.2 93
2020-01-15 00:00:00 3.4 -- -- -- -- 0 947 -0.1 91
2020-01-14 23:00:00 4.3 -- -- -- -- 0 947.5 0.2 87
2020-01-14 22:00:00 4.9 -- -- -- -- 0 947.2 0 86
2020-01-14 21:00:00 5.8 -- -- -- -- 0 947.1 0 79
2020-01-14 20:00:00 7.3 -- -- -- -- 0 947.3 0.4 73
2020-01-14 19:00:00 7.9 -- -- -- -- 0 947.2 0.4 69
2020-01-14 18:00:00 8.5 -- -- -- -- 0 947.1 0.2 65
2020-01-14 17:00:00 10.5 -- -- -- -- 0 946.9 -0.2 56
2020-01-14 16:00:00 11.9 -- -- -- -- 0 946.8 -0.6 52
2020-01-14 15:00:00 12 -- -- -- -- 0 946.9 0 51
2020-01-14 14:00:00 11.7 -- -- -- -- 0 947.1 0.9 57
2020-01-14 13:00:00 10.3 -- -- -- -- 0 947.4 1.9 60
2020-01-14 12:00:00 7.2 -- -- -- -- 0 946.9 1.5 67
2020-01-14 11:00:00 4.4 -- -- -- -- 0 946.2 0.8 80
2020-01-14 10:00:00 1.3 -- -- -- -- 0 945.5 0.3 92
2020-01-14 09:00:00 -0.4 -- -- -- -- 0 945.4 0.4 95
2020-01-14 08:00:00 -0.5 -- -- -- -- 0 945.4 -0.1 94
2020-01-14 07:00:00 -0.7 -- -- -- -- 0 945.2 -0.2 94
2020-01-14 06:00:00 -0.3 -- -- -- -- 0 945 -0.6 93
2020-01-14 05:00:00 0.3 -- -- -- -- 0 945.5 -0.4 92
2020-01-14 04:00:00 0.2 -- -- -- -- 0 945.4 -1.7 92
2020-01-14 03:00:00 0.4 -- -- -- -- 0 945.6 -1.9 91
2020-01-14 02:00:00 0.3 -- -- -- -- 0 945.9 -1.6 91
2020-01-14 01:00:00 2 -- -- -- -- 0 947.1 -0.5 81
2020-01-14 00:00:00 2.8 -- -- -- -- 0 947.5 -0.2 77
2020-01-13 23:00:00 3.8 -- -- -- -- 0 947.5 -1.1 72
2020-01-13 22:00:00 4.9 -- -- -- -- 0 947.6 -1.3 67
2020-01-13 21:00:00 5.8 -- -- -- -- 0 947.7 -1.3 63
2020-01-13 20:00:00 7.5 -- -- -- -- 0 948.6 -0.1 52
2020-01-13 19:00:00 9.3 -- -- -- -- 0 948.9 -0.2 46
2020-01-13 18:00:00 10.8 -- -- -- -- 0 949 -0.6 43
2020-01-13 17:00:00 12.3 -- -- -- -- 0 948.7 -1.1 39
2020-01-13 16:00:00 13.4 -- -- -- -- 0 949.1 -1.2 42
2020-01-13 15:00:00 13 -- -- -- -- 0 949.6 -0.9 44
2020-01-13 14:00:00 12.5 -- -- -- -- 0 949.8 0.1 48
2020-01-13 13:00:00 10.9 -- -- -- -- 0 950.3 1.6 56
2020-01-13 12:00:00 7.6 -- -- -- -- 0 950.5 1.8 63
2020-01-13 11:00:00 4.8 -- -- -- -- 0 949.7 1 80
2020-01-13 10:00:00 1.4 -- -- -- -- 0 948.7 0.5 91
2020-01-13 09:00:00 -0.6 -- -- -- -- 0 948.7 0.4 94
2020-01-13 08:00:00 -0.1 -- -- -- -- 0 948.7 -0.5 94
2020-01-13 07:00:00 -0.6 -- -- -- -- 0 948.2 -1.5 97
2020-01-13 06:00:00 -0.1 -- -- -- -- 0 948.3 -1.4 94
2020-01-13 05:00:00 0.3 -- -- -- -- 0 949.2 -0.9 93
2020-01-13 04:00:00 0.6 -- -- -- -- 0 949.7 -1.2 91
2020-01-13 03:00:00 0.9 -- -- -- -- 0 949.7 -1.7 89
2020-01-13 02:00:00 1.9 -- -- -- -- 0 950.1 -1.4 85
2020-01-13 01:00:00 2.8 -- -- -- -- 0 950.9 -0.8 81
2020-01-13 00:00:00 2.9 -- -- -- -- 0 951.4 -0.5 80
2020-01-12 23:00:00 4 -- -- -- -- 0 951.5 -1.3 76
2020-01-12 22:00:00 4.9 -- -- -- -- 0 951.7 -0.7 72
2020-01-12 21:00:00 6.3 -- -- -- -- 0 951.9 -0.8 68
2020-01-12 20:00:00 6.8 -- -- -- -- 0 952.8 0.3 63
2020-01-12 19:00:00 9 -- -- -- -- 0 952.4 -0.3 55
2020-01-12 18:00:00 13.3 -- -- -- -- 0 952.7 -0.1 44
2020-01-12 17:00:00 14.3 -- -- -- -- 0 952.5 -0.7 43
2020-01-12 16:00:00 13.5 -- -- -- -- 0 952.7 -1.1 44
2020-01-12 15:00:00 13.6 -- -- -- -- 0 952.8 -1 45
2020-01-12 14:00:00 12.8 -- -- -- -- 0 953.2 -0.2 51
2020-01-12 13:00:00 11.2 -- -- -- -- 0 953.8 1 60
2020-01-12 12:00:00 8.3 -- -- -- -- 0 953.8 1.7 69
2020-01-12 11:00:00 4.8 -- -- -- -- 0 953.4 1.2 86
2020-01-12 10:00:00 2 -- -- -- -- 0 952.8 0.9 95
2020-01-12 09:00:00 0.3 -- -- -- -- 0 952.1 0.2 98
2020-01-12 08:00:00 0.2 -- -- -- -- 0 952.2 0.1 96
2020-01-12 07:00:00 0.2 -- -- -- -- 0 951.9 -0.6 95
2020-01-12 06:00:00 0.8 -- -- -- -- 0 951.9 -0.3 94
2020-01-12 05:00:00 1.1 -- -- -- -- 0 952.1 -0.1 93
2020-01-12 04:00:00 2 -- -- -- -- 0 952.5 0 92
2020-01-12 03:00:00 2.5 -- -- -- -- 0 952.2 -0.7 91
2020-01-12 02:00:00 2.7 -- -- -- -- 0 952.2 -0.7 92
2020-01-12 01:00:00 3.2 -- -- -- -- 0 952.5 -0.5 91
2020-01-12 00:00:00 3.8 -- -- -- -- 0 952.9 -0.2 88
2020-01-11 23:00:00 4.9 -- -- -- -- 0 952.9 -0.6 83
2020-01-11 22:00:00 5.5 -- -- -- -- 0 953 -0.3 81
2020-01-11 21:00:00 6.2 -- -- -- -- 0 953.1 0.1 75
2020-01-11 20:00:00 9.4 -- -- -- -- 0 953.5 0.6 62
2020-01-11 19:00:00 9.6 -- -- -- -- 0 953.3 0.5 58
2020-01-11 18:00:00 12.4 -- -- -- -- 0 953 0.2 50
2020-01-11 17:00:00 14.3 -- -- -- -- 0 952.9 0 46
2020-01-11 16:00:00 14.5 -- -- -- -- 0 952.8 -0.7 46
2020-01-11 15:00:00 15.3 -- -- -- -- 0 952.8 -1.5 44
2020-01-11 14:00:00 13 -- -- -- -- 0 952.9 0 49
2020-01-11 13:00:00 12 -- -- -- -- 0 953.5 1.8 54
2020-01-11 12:00:00 9.9 -- -- -- -- 0 954.3 3.2 63
2020-01-11 11:00:00 6.6 -- -- -- -- 0 952.9 1.9 71
2020-01-11 10:00:00 3.7 -- -- -- -- 0 951.7 1 85
2020-01-11 09:00:00 1.9 -- -- -- -- 0 951.1 0.3 87
2020-01-11 08:00:00 3.4 -- -- -- -- 0 951 0.2 82
2020-01-11 07:00:00 1.1 -- -- -- -- 0 950.7 -0.4 90
2020-01-11 06:00:00 1.4 -- -- -- -- 0 950.8 0.1 88
2020-01-11 05:00:00 3.9 -- -- -- -- 0 950.8 0.1 79
2020-01-11 04:00:00 3.3 -- -- -- -- 0 951.1 0 79
2020-01-11 03:00:00 4.2 -- -- -- -- 0 950.7 -0.4 77
2020-01-11 02:00:00 5.4 -- -- -- -- 0 950.7 0.1 67
2020-01-11 01:00:00 5.5 -- -- -- -- 0 951.1 0.7 69
2020-01-11 00:00:00 5.8 -- -- -- -- 0 951.1 1 67
2020-01-10 23:00:00 5.9 -- -- -- -- 0 950.6 0.3 66
2020-01-10 22:00:00 5.2 -- -- -- -- 0 950.4 0.5 67
2020-01-10 21:00:00 6.9 -- -- -- -- 0 950.1 0.5 61
2020-01-10 20:00:00 7.4 -- -- -- -- 0 950.3 1.2 56
2020-01-10 19:00:00 9.2 -- -- -- -- 0 949.9 0.9 50
2020-01-10 18:00:00 11.3 -- -- -- -- 0 949.6 0.6 45
2020-01-10 17:00:00 12.6 -- -- -- -- 0 949.1 0 42
2020-01-10 16:00:00 13.2 -- -- -- -- 0 949 -0.5 43
2020-01-10 15:00:00 12.2 -- -- -- -- 0 949 -1.1 51
2020-01-10 14:00:00 12.9 -- -- -- -- 0 949.1 -0.5 56
2020-01-10 13:00:00 11.6 -- -- -- -- 0 949.5 0.2 62
2020-01-10 12:00:00 9.9 -- -- -- -- 0 950.1 0.9 74
2020-01-10 11:00:00 7.9 -- -- -- -- 0 949.6 1.6 88
2020-01-10 10:00:00 6.6 -- -- -- -- 0 949.3 1.4 93
2020-01-10 09:00:00 5.7 -- -- -- -- 0 949.2 1 94
2020-01-10 08:00:00 5.7 -- -- -- -- 0 948 0.3 94
2020-01-10 07:00:00 5.5 -- -- -- -- 0 947.9 0 94
2020-01-10 06:00:00 5.1 -- -- -- -- 0 948.2 -0.1 97
2020-01-10 05:00:00 5.5 -- -- -- -- 0 947.7 -0.8 97
2020-01-10 04:00:00 4.7 -- -- -- -- 0 947.9 -0.6 95
2020-01-10 03:00:00 4.6 -- -- -- -- 0 948.3 -1.6 95
2020-01-10 02:00:00 4.6 -- -- -- -- 0 948.5 -1.7 95
2020-01-10 01:00:00 4.4 -- -- -- -- 0 948.5 -0.8 92
2020-01-10 00:00:00 5.7 -- -- -- -- 0 949.9 0.2 87
2020-01-09 23:00:00 6.3 -- -- -- -- 0 950.2 -0.4 83
2020-01-09 22:00:00 6.8 -- -- -- -- 0 949.3 -1.8 80
2020-01-09 21:00:00 7.6 -- -- -- -- 0 949.7 -0.3 71
2020-01-09 20:00:00 10.1 -- -- -- -- 0 950.6 0.4 63
2020-01-09 19:00:00 10.7 -- -- -- -- 0 951.1 0.8 64
2020-01-09 18:00:00 11.9 -- -- -- -- 0 950 -0.7 58
2020-01-09 17:00:00 14 -- -- -- -- 0 950.2 -0.7 54
2020-01-09 16:00:00 14.4 -- -- -- -- 0 950.3 -1.3 50
2020-01-09 15:00:00 14.1 -- -- -- -- 0 950.7 -0.5 52
2020-01-09 14:00:00 13.7 -- -- -- -- 0 950.9 0.4 54
2020-01-09 13:00:00 12.5 -- -- -- -- 0 951.6 1.8 60
2020-01-09 12:00:00 10.1 -- -- -- -- 0 951.2 2 69
2020-01-09 11:00:00 7.3 -- -- -- -- 0 950.5 1.5 80
2020-01-09 10:00:00 3.8 -- -- -- -- 0 949.8 0.7 92
2020-01-09 09:00:00 2.4 -- -- -- -- 0 949.2 -0.2 94
2020-01-09 08:00:00 2.3 -- -- -- -- 0 949 -0.7 94
2020-01-09 07:00:00 3 -- -- -- -- 0 949.1 -0.7 93
2020-01-09 06:00:00 3 -- -- -- -- 0 949.4 -0.7 92
2020-01-09 05:00:00 3.8 -- -- -- -- 0 949.7 -0.5 88
2020-01-09 04:00:00 4.4 -- -- -- -- 0 949.8 -0.7 87
2020-01-09 03:00:00 5.3 -- -- -- -- 0 950.1 -1 85
2020-01-09 02:00:00 5.1 -- -- -- -- 0 950.2 -1.2 83
2020-01-09 01:00:00 6.3 -- -- -- -- 0 950.5 -1.3 79
2020-01-09 00:00:00 6.5 -- -- -- -- 0 951.1 -0.7 77
2020-01-08 23:00:00 7.8 -- -- -- -- 0 951.4 -0.3 73
2020-01-08 22:00:00 8.5 -- -- -- -- 0 951.8 -0.1 67
2020-01-08 21:00:00 10.3 -- -- -- -- 0 951.8 -0.3 60
2020-01-08 20:00:00 11.2 -- -- -- -- 0 951.7 -0.3 55
2020-01-08 19:00:00 12.8 -- -- -- -- 0 951.9 -0.1 49
2020-01-08 18:00:00 16.5 -- -- -- -- 0 952.1 0.4 42
2020-01-08 17:00:00 18.5 -- -- -- -- 0 952 0.1 38
2020-01-08 16:00:00 19 -- -- -- -- 0 952 0 38
2020-01-08 15:00:00 17.2 -- -- -- -- 0 951.7 -1 39
2020-01-08 14:00:00 16.5 -- -- -- -- 0 951.9 0.1 43
2020-01-08 13:00:00 13.4 -- -- -- -- 0 952 0.8 48
2020-01-08 12:00:00 10 -- -- -- -- 0 952.7 1.8 56
2020-01-08 11:00:00 6.3 -- -- -- -- 0 951.8 1.3 73
2020-01-08 10:00:00 3.8 -- -- -- -- 0 951.2 0.5 85
2020-01-08 09:00:00 1.7 -- -- -- -- 0 950.9 -0.2 91
2020-01-08 08:00:00 1.5 -- -- -- -- 0 950.5 -0.7 91
2020-01-08 07:00:00 1.7 -- -- -- -- 0 950.7 -0.7 89
2020-01-08 06:00:00 2.1 -- -- -- -- 0 951.1 -0.6 89
2020-01-08 05:00:00 2.5 -- -- -- -- 0 951.2 -0.6 88
2020-01-08 04:00:00 2.9 -- -- -- -- 0 951.4 -0.8 88
2020-01-08 03:00:00 3.5 -- -- -- -- 0 951.7 -0.8 83
2020-01-08 02:00:00 4.9 -- -- -- -- 0 951.8 -1.1 80
2020-01-08 01:00:00 5.1 -- -- -- -- 0 952.2 -1.1 79
2020-01-08 00:00:00 5.5 -- -- -- -- 0 952.5 -1.4 76
2020-01-07 23:00:00 6.3 -- -- -- -- 0 952.9 -1 73
2020-01-07 22:00:00 7.5 -- -- -- -- 0 953.3 -0.7 66
2020-01-07 21:00:00 9.3 -- -- -- -- 0 953.9 -0.8 61
2020-01-07 20:00:00 10.9 -- -- -- -- 0 953.9 -0.3 57
2020-01-07 19:00:00 11.8 -- -- -- -- 0 954 -0.1 51
2020-01-07 18:00:00 17.4 -- -- -- -- 0 954.7 0.7 39
2020-01-07 17:00:00 19.5 -- -- -- -- 0 954.2 0.1 35
2020-01-07 16:00:00 19.2 -- -- -- -- 0 954.1 -0.5 33
2020-01-07 15:00:00 17.5 -- -- -- -- 0 954 -0.3 36
2020-01-07 14:00:00 15.2 -- -- -- -- 0 954.1 0.1 43
2020-01-07 13:00:00 12.6 -- -- -- -- 0 954.6 1.6 52
2020-01-07 12:00:00 10.9 -- -- -- -- 0 954.3 1.8 64
2020-01-07 11:00:00 6.9 -- -- -- -- 0 954 1.6 77
2020-01-07 10:00:00 3.6 -- -- -- -- 0 953 1.1 89
2020-01-07 09:00:00 1.4 -- -- -- -- 0 952.5 0.5 95
2020-01-07 08:00:00 2 -- -- -- -- 0 952.4 -0.1 94
2020-01-07 07:00:00 2.9 -- -- -- -- 0 951.9 -0.6 92
2020-01-07 06:00:00 2.6 -- -- -- -- 0 952 -0.5 94
2020-01-07 05:00:00 1.8 -- -- -- -- 0 952.5 0 94
2020-01-07 04:00:00 3.2 -- -- -- -- 0 952.5 -0.3 91
2020-01-07 03:00:00 3.4 -- -- -- -- 0 952.5 -0.4 93
2020-01-07 02:00:00 3.9 -- -- -- -- 0 952.5 -0.5 93
2020-01-07 01:00:00 4.4 -- -- -- -- 0 952.8 0.2 90
2020-01-07 00:00:00 5.2 -- -- -- -- 0 952.9 0.2 86
2020-01-06 23:00:00 6.9 -- -- -- -- 0 953 0.2 82
2020-01-06 22:00:00 6.4 -- -- -- -- 0 952.6 0 83
2020-01-06 21:00:00 8.1 -- -- -- -- 0 952.7 0.1 80
2020-01-06 20:00:00 9.6 -- -- -- -- 0 952.8 0.2 71
2020-01-06 19:00:00 10.8 -- -- -- -- 0 952.6 0.3 63
2020-01-06 18:00:00 14.2 -- -- -- -- 0 952.6 0.5 51
2020-01-06 17:00:00 17 -- -- -- -- 0 952.6 0.3 45
2020-01-06 16:00:00 17 -- -- -- -- 0 952.3 -0.1 46
2020-01-06 15:00:00 16.1 -- -- -- -- 0 952.1 0 48
2020-01-06 14:00:00 14.4 -- -- -- -- 0 952.3 0.5 50
2020-01-06 13:00:00 12.2 -- -- -- -- 0 952.4 1.6 56
2020-01-06 12:00:00 9.2 -- -- -- -- 0 952.1 1.9 67
2020-01-06 11:00:00 5.9 -- -- -- -- 0 951.8 2 76
2020-01-06 10:00:00 3.3 -- -- -- -- 0 950.8 1.2 89